Blountsville, Alabama
Current Conditions -  °F | °C
As of 11:55 PM on Saturday 22 Nov 2014 (Local Time) from KCMD Reporting Station
Overcast Overcast  
Wind Chill: 57°   Ceiling: 2400
Heat Index: 57°   Visibility: 10mi
Dew Point: 46°   Wind: 8mph
Humidity: 67%   Direction: 130°SE
Pressure: 30.08"   Gusts: NA
Location:  34.08°N, 86.59°W
Report Text: KCMD 230555Z AUTO 13007KT 10SM OVC024 14/08 A3008 RMK AO2 T01370077
Loading
Personal Weather Stations






























Interactive Weather Map New forecast layout! Learn more

10-Day Weather Forecast

Advertisements
Track Severe Weather on mobile